Time;durP1;ratioP1;P1;durP2;ratioP2;P2;SDS_P1;SDS_P2;PMS_P1;PMS_P2;Temp;Humidity;BMP_temperature;BMP_pressure;BME280_temperature;BME280_humidity;BME280_pressure;Samples;Min_cycle;Max_cycle;Signal;HPM_P1;HPM_P2
2022/08/17 00:00:59;;;;;;;12.57;11.68;;;;;;;;;;4889910;29;20048;-67
2022/08/17 00:03:34;;;;;;;12.13;11.20;;;;;;;;;;4890056;29;20024;-67
2022/08/17 00:06:12;;;;;;;12.18;11.27;;;;;;;;;;4891456;29;20098;-67
2022/08/17 00:08:47;;;;;;;12.27;11.23;;;;;;;;;;4893552;29;20044;-67
2022/08/17 00:11:27;;;;;;;13.32;12.07;;;;;;;;;;4891243;29;20044;-67
2022/08/17 00:13:56;;;;;;;12.65;11.38;;;;;;;;;;4892162;29;20044;-66
2022/08/17 00:16:30;;;;;;;;;;;;;;;;;;4893863;29;20043;-66
2022/08/17 00:19:01;;;;;;;13.18;12.13;;;;;;;;;;4890435;29;20030;-66
2022/08/17 00:21:27;;;;;;;13.18;12.07;;;;;;;;;;4889942;29;20032;-66
2022/08/17 00:23:53;;;;;;;13.90;12.50;;;;;;;;;;4890729;29;20036;-67
2022/08/17 00:26:21;;;;;;;13.48;12.27;;;;;;;;;;4889180;29;20068;-67
2022/08/17 00:28:46;;;;;;;13.25;12.02;;;;;;;;;;4890824;29;20029;-66
2022/08/17 00:31:12;;;;;;;13.10;11.88;;;;;;;;;;4890728;29;20092;-67
2022/08/17 00:33:39;;;;;;;13.48;12.20;;;;;;;;;;4891376;29;20033;-67
2022/08/17 00:36:06;;;;;;;13.23;11.95;;;;;;;;;;4888546;29;20048;-67
2022/08/17 00:38:33;;;;;;;12.80;11.63;;;;;;;;;;4889823;29;20408;-66
2022/08/17 00:41:05;;;;;;;13.77;11.93;;;;;;;;;;4884337;29;20642;-66
2022/08/17 00:43:36;;;;;;;13.23;12.27;;;;;;;;;;4892219;29;20040;-66
2022/08/17 00:46:27;;;;;;;13.52;12.27;;;;;;;;;;4891859;29;20040;-66
2022/08/17 00:48:54;;;;;;;12.98;11.98;;;;;;;;;;4891869;29;20041;-66
2022/08/17 00:51:40;;;;;;;13.80;12.70;;;;;;;;;;4892490;29;20773;-67
2022/08/17 00:54:11;;;;;;;13.20;12.18;;;;;;;;;;4893250;29;20033;-66
2022/08/17 00:56:41;;;;;;;13.30;12.30;;;;;;;;;;4891423;29;20044;-67
2022/08/17 00:59:08;;;;;;;13.82;12.73;;;;;;;;;;4889907;29;20036;-67
2022/08/17 01:01:35;;;;;;;13.40;12.15;;;;;;;;;;4892526;29;20067;-67
2022/08/17 01:04:03;;;;;;;13.48;12.27;;;;;;;;;;4892512;29;20642;-66
2022/08/17 01:06:30;;;;;;;13.18;12.18;;;;;;;;;;4890181;29;20068;-66
2022/08/17 01:08:58;;;;;;;13.60;12.40;;;;;;;;;;4892287;29;20032;-67
2022/08/17 01:11:24;;;;;;;12.93;11.93;;;;;;;;;;4893038;29;20046;-67
2022/08/17 01:13:50;;;;;;;13.68;12.40;;;;;;;;;;4890978;29;20703;-66
2022/08/17 01:16:20;;;;;;;13.57;12.48;;;;;;;;;;4891239;29;20036;-66
2022/08/17 01:18:49;;;;;;;13.68;12.57;;;;;;;;;;4886991;29;20100;-67
2022/08/17 01:21:28;;;;;;;13.15;12.15;;;;;;;;;;4891063;29;20096;-66
2022/08/17 01:23:54;;;;;;;13.25;12.35;;;;;;;;;;4892656;29;20097;-67
2022/08/17 01:26:20;;;;;;;13.07;12.07;;;;;;;;;;4892413;29;20125;-67
2022/08/17 01:28:46;;;;;;;13.63;12.52;;;;;;;;;;4891594;29;20040;-67
2022/08/17 01:31:12;;;;;;;13.35;12.27;;;;;;;;;;4886437;29;21270;-66
2022/08/17 01:33:37;;;;;;;13.90;12.75;;;;;;;;;;4892462;29;20130;-67
2022/08/17 01:36:06;;;;;;;13.45;12.25;;;;;;;;;;4892498;29;20440;-67
2022/08/17 01:38:33;;;;;;;13.90;12.70;;;;;;;;;;4890600;29;20072;-67
2022/08/17 01:41:06;;;;;;;13.73;12.50;;;;;;;;;;4890052;29;20119;-66
2022/08/17 01:44:02;;;;;;;13.60;12.40;;;;;;;;;;4891546;29;20040;-67
2022/08/17 01:46:33;;;;;;;13.52;12.25;;;;;;;;;;4889909;29;20117;-67
2022/08/17 01:49:00;;;;;;;13.15;12.18;;;;;;;;;;4886178;29;20044;-67
2022/08/17 01:51:31;;;;;;;13.82;12.73;;;;;;;;;;4891529;29;20056;-67
2022/08/17 01:53:59;;;;;;;14.50;13.13;;;;;;;;;;4891877;29;20086;-67
2022/08/17 01:56:26;;;;;;;13.73;12.70;;;;;;;;;;4890940;29;20113;-67
2022/08/17 01:58:52;;;;;;;14.10;12.88;;;;;;;;;;4889754;29;20124;-67
2022/08/17 02:01:21;;;;;;;14.27;12.95;;;;;;;;;;4890824;29;20044;-67
2022/08/17 02:03:47;;;;;;;14.25;13.00;;;;;;;;;;4891553;29;20044;-67
2022/08/17 02:06:12;;;;;;;13.70;12.50;;;;;;;;;;4887890;29;20040;-67
2022/08/17 02:08:38;;;;;;;13.43;12.35;;;;;;;;;;4891562;29;20523;-67
2022/08/17 02:11:10;;;;;;;13.35;12.35;;;;;;;;;;4891804;29;20119;-67
2022/08/17 02:13:36;;;;;;;14.27;13.18;;;;;;;;;;4889724;29;20033;-67
2022/08/17 02:16:02;;;;;;;14.10;12.90;;;;;;;;;;4889947;29;20658;-67
2022/08/17 02:18:29;;;;;;;14.95;13.75;;;;;;;;;;4891579;29;20117;-67
2022/08/17 02:20:55;;;;;;;14.32;13.23;;;;;;;;;;4888935;29;20056;-67
2022/08/17 02:23:23;;;;;;;14.23;12.98;;;;;;;;;;4889991;29;20028;-67
2022/08/17 02:25:49;;;;;;;14.60;13.38;;;;;;;;;;4888304;29;20044;-67
2022/08/17 02:28:16;;;;;;;14.35;13.25;;;;;;;;;;4891667;29;20505;-67
2022/08/17 02:30:43;;;;;;;14.50;13.30;;;;;;;;;;4891271;29;20036;-67
2022/08/17 02:33:09;;;;;;;14.20;13.00;;;;;;;;;;4889500;29;20040;-67
2022/08/17 02:35:36;;;;;;;14.68;13.48;;;;;;;;;;4890920;29;20048;-67
2022/08/17 02:38:03;;;;;;;14.25;13.02;;;;;;;;;;4891275;29;20039;-67
2022/08/17 02:40:29;;;;;;;14.70;13.10;;;;;;;;;;4889414;29;20075;-67
2022/08/17 02:42:55;;;;;;;15.63;14.27;;;;;;;;;;4888741;29;20437;-67
2022/08/17 02:45:23;;;;;;;15.00;13.65;;;;;;;;;;4890513;29;20033;-67
2022/08/17 02:47:49;;;;;;;15.35;13.90;;;;;;;;;;4882486;29;20108;-67
2022/08/17 02:50:18;;;;;;;15.35;14.13;;;;;;;;;;4892555;29;20032;-67
2022/08/17 02:52:44;;;;;;;14.85;13.55;;;;;;;;;;4890304;29;20096;-67
2022/08/17 02:55:14;;;;;;;15.45;13.88;;;;;;;;;;4885093;29;20037;-67
2022/08/17 02:57:40;;;;;;;14.50;13.07;;;;;;;;;;4889802;29;20044;-67
2022/08/17 03:00:10;;;;;;;14.77;13.43;;;;;;;;;;4891523;29;20032;-67
2022/08/17 03:02:40;;;;;;;14.32;13.05;;;;;;;;;;4890397;29;20048;-67
2022/08/17 03:05:09;;;;;;;14.98;13.70;;;;;;;;;;4885993;29;20036;-66
2022/08/17 03:07:36;;;;;;;13.48;12.48;;;;;;;;;;4891404;29;20424;-67
2022/08/17 03:10:03;;;;;;;14.18;13.07;;;;;;;;;;4890201;29;20517;-67
2022/08/17 03:12:32;;;;;;;14.60;13.40;;;;;;;;;;4887946;29;20049;-67
2022/08/17 03:15:02;;;;;;;15.00;13.60;;;;;;;;;;4890897;29;20029;-67
2022/08/17 03:17:27;;;;;;;13.90;12.90;;;;;;;;;;4891391;29;20050;-67
2022/08/17 03:19:53;;;;;;;14.32;13.20;;;;;;;;;;4891607;29;20041;-67
2022/08/17 03:22:19;;;;;;;14.70;13.40;;;;;;;;;;4886909;29;20041;-67
2022/08/17 03:24:44;;;;;;;13.98;12.88;;;;;;;;;;4894086;29;20045;-67
2022/08/17 03:27:10;;;;;;;14.63;13.38;;;;;;;;;;4894492;29;20048;-67
2022/08/17 03:29:35;;;;;;;13.70;12.55;;;;;;;;;;4894497;29;20127;-67
2022/08/17 03:32:13;;;;;;;14.52;13.32;;;;;;;;;;4893130;29;20403;-67
2022/08/17 03:34:39;;;;;;;14.05;12.85;;;;;;;;;;4894855;29;20052;-67
2022/08/17 03:37:05;;;;;;;14.48;13.15;;;;;;;;;;4894168;29;20063;-67
2022/08/17 03:39:30;;;;;;;14.43;13.32;;;;;;;;;;4891785;29;20051;-67
2022/08/17 03:42:12;;;;;;;14.63;13.45;;;;;;;;;;4892797;29;20036;-67
2022/08/17 03:44:38;;;;;;;15.18;13.88;;;;;;;;;;4892581;29;20040;-66
2022/08/17 03:58:01;;;;;;;15.35;13.93;;;;;;;;;;4892961;29;20040;-67
2022/08/17 04:00:27;;;;;;;15.63;14.10;;;;;;;;;;4893966;29;20495;-67
2022/08/17 04:02:53;;;;;;;15.70;14.23;;;;;;;;;;4892317;29;20633;-65
2022/08/17 04:05:19;;;;;;;15.77;14.25;;;;;;;;;;4893511;29;20092;-66
2022/08/17 04:07:45;;;;;;;15.65;14.32;;;;;;;;;;4893998;29;20032;-66
2022/08/17 04:10:12;;;;;;;15.02;13.50;;;;;;;;;;4891248;29;20416;-66
2022/08/17 04:12:47;;;;;;;15.23;13.93;;;;;;;;;;4893981;29;20040;-66
2022/08/17 04:15:13;;;;;;;15.70;14.25;;;;;;;;;;4893526;29;20059;-66
2022/08/17 04:17:39;;;;;;;15.48;14.27;;;;;;;;;;4894261;29;20044;-66
2022/08/17 04:20:06;;;;;;;15.73;14.23;;;;;;;;;;4891431;29;20093;-65
2022/08/17 04:22:31;;;;;;;15.43;14.13;;;;;;;;;;4893807;29;20071;-66
2022/08/17 04:24:57;;;;;;;16.00;14.55;;;;;;;;;;4893227;29;20072;-66
2022/08/17 04:27:23;;;;;;;16.67;15.05;;;;;;;;;;4891865;29;20162;-65
2022/08/17 04:29:49;;;;;;;16.27;14.88;;;;;;;;;;4893302;29;20040;-65
2022/08/17 04:32:14;;;;;;;16.08;14.70;;;;;;;;;;4893668;29;20512;-65
2022/08/17 04:34:40;;;;;;;16.95;15.43;;;;;;;;;;4892123;29;20658;-65
2022/08/17 04:37:07;;;;;;;16.77;15.38;;;;;;;;;;4905662;29;20058;-65
2022/08/17 04:39:33;;;;;;;16.80;15.40;;;;;;;;;;4895697;29;20493;-66
2022/08/17 04:42:15;;;;;;;16.35;14.95;;;;;;;;;;4892744;29;20044;-66
2022/08/17 04:44:42;;;;;;;17.02;15.27;;;;;;;;;;4889239;29;20500;-65
2022/08/17 04:47:08;;;;;;;16.98;15.57;;;;;;;;;;4889333;29;20087;-65
2022/08/17 04:49:34;;;;;;;17.05;15.65;;;;;;;;;;4893049;29;20036;-66
2022/08/17 04:51:59;;;;;;;17.45;15.82;;;;;;;;;;4892303;29;20493;-66
2022/08/17 04:54:25;;;;;;;16.58;15.07;;;;;;;;;;4890647;29;20120;-66
2022/08/17 04:56:51;;;;;;;17.08;15.48;;;;;;;;;;4892350;29;20037;-66
2022/08/17 04:59:19;;;;;;;17.23;15.43;;;;;;;;;;4892511;29;20168;-66
2022/08/17 05:01:49;;;;;;;17.33;15.60;;;;;;;;;;4888358;29;20635;-66
2022/08/17 05:04:21;;;;;;;;;;;;;;;;;;4892326;29;20041;-66
2022/08/17 05:06:48;;;;;;;18.20;16.15;;;;;;;;;;4893330;29;19915;-66
2022/08/17 05:09:16;;;;;;;17.38;15.90;;;;;;;;;;4891487;29;20040;-66
2022/08/17 05:11:42;;;;;;;17.40;15.70;;;;;;;;;;4891922;29;20047;-66
2022/08/17 05:14:08;;;;;;;17.02;15.40;;;;;;;;;;4892301;29;20180;-66
2022/08/17 05:16:33;;;;;;;17.20;15.68;;;;;;;;;;4892382;29;20559;-66
2022/08/17 05:18:59;;;;;;;16.85;15.20;;;;;;;;;;4892743;29;20152;-66
2022/08/17 05:21:25;;;;;;;16.73;15.23;;;;;;;;;;4891259;29;20044;-66
2022/08/17 05:23:52;;;;;;;16.00;14.57;;;;;;;;;;4891764;29;20385;-66
2022/08/17 05:26:19;;;;;;;15.88;14.35;;;;;;;;;;4891448;29;20047;-66
2022/08/17 05:28:45;;;;;;;15.50;14.07;;;;;;;;;;4888672;29;20032;-67
2022/08/17 05:31:11;;;;;;;16.73;15.18;;;;;;;;;;4891888;29;20436;-67
2022/08/17 05:33:39;;;;;;;16.73;15.30;;;;;;;;;;4892382;29;20096;-67
2022/08/17 05:36:09;;;;;;;16.50;15.10;;;;;;;;;;4891407;29;20064;-67
2022/08/17 05:38:35;;;;;;;16.08;14.73;;;;;;;;;;4892358;29;20558;-67
2022/08/17 05:41:04;;;;;;;15.35;13.95;;;;;;;;;;4892395;29;20036;-67
2022/08/17 05:43:32;;;;;;;15.90;14.60;;;;;;;;;;4889610;29;20051;-67
2022/08/17 05:46:17;;;;;;;15.88;14.25;;;;;;;;;;4887697;29;20048;-67
2022/08/17 05:48:50;;;;;;;15.75;14.25;;;;;;;;;;4890262;29;20056;-67
2022/08/17 05:51:33;;;;;;;14.75;13.35;;;;;;;;;;4892349;29;20036;-67
2022/08/17 05:54:23;;;;;;;14.77;13.48;;;;;;;;;;4889935;29;20510;-67
2022/08/17 05:57:20;;;;;;;15.68;14.30;;;;;;;;;;4891717;29;20572;-67
2022/08/17 06:00:05;;;;;;;16.63;14.95;;;;;;;;;;4890920;29;20054;-67
2022/08/17 06:02:56;;;;;;;15.27;13.68;;;;;;;;;;4891181;29;20041;-67
2022/08/17 06:05:34;;;;;;;14.98;13.75;;;;;;;;;;4890690;29;20488;-67
2022/08/17 06:08:10;;;;;;;14.60;13.20;;;;;;;;;;4890953;29;20345;-67
2022/08/17 06:10:54;;;;;;;14.98;13.60;;;;;;;;;;4888507;29;20049;-67
2022/08/17 06:13:38;;;;;;;15.32;13.93;;;;;;;;;;4891530;29;20048;-67
2022/08/17 06:16:10;;;;;;;14.15;12.85;;;;;;;;;;4889111;29;20531;-67
2022/08/17 06:18:42;;;;;;;15.55;14.10;;;;;;;;;;4890465;29;20361;-67
2022/08/17 06:21:14;;;;;;;14.93;13.23;;;;;;;;;;4887135;29;20124;-67
2022/08/17 06:23:48;;;;;;;14.57;13.38;;;;;;;;;;4891093;29;20487;-67
2022/08/17 06:26:19;;;;;;;14.30;13.10;;;;;;;;;;4889188;29;20491;-67
2022/08/17 06:29:01;;;;;;;14.45;13.18;;;;;;;;;;4890278;29;20037;-67
2022/08/17 06:31:38;;;;;;;14.52;13.02;;;;;;;;;;4891365;29;20353;-67
2022/08/17 06:34:09;;;;;;;13.50;12.50;;;;;;;;;;4888431;29;20384;-67
2022/08/17 06:36:49;;;;;;;13.30;12.07;;;;;;;;;;4889297;29;20501;-67
2022/08/17 06:39:25;;;;;;;13.65;12.52;;;;;;;;;;4889679;29;20120;-67
2022/08/17 06:41:56;;;;;;;13.55;12.45;;;;;;;;;;4890254;29;20040;-67
2022/08/17 06:44:33;;;;;;;12.63;11.52;;;;;;;;;;4891574;29;20558;-67
2022/08/17 06:47:09;;;;;;;14.27;12.98;;;;;;;;;;4890807;29;20509;-67
2022/08/17 06:49:50;;;;;;;14.07;12.80;;;;;;;;;;4887361;29;20370;-67
2022/08/17 06:52:22;;;;;;;14.00;12.90;;;;;;;;;;4891290;29;20113;-67
2022/08/17 06:55:08;;;;;;;13.43;12.45;;;;;;;;;;4891227;29;20066;-67
2022/08/17 06:57:42;;;;;;;13.95;12.70;;;;;;;;;;4885338;29;20072;-67
2022/08/17 07:00:17;;;;;;;13.88;12.55;;;;;;;;;;4895385;29;20119;-67
2022/08/17 07:02:50;;;;;;;13.07;12.00;;;;;;;;;;4894813;29;20040;-66
2022/08/17 07:05:19;;;;;;;13.48;12.18;;;;;;;;;;4891962;29;20040;-67
2022/08/17 07:08:02;;;;;;;13.93;12.65;;;;;;;;;;4895064;29;20378;-67
2022/08/17 07:10:55;;;;;;;13.80;12.57;;;;;;;;;;4895107;29;20048;-67
2022/08/17 07:13:40;;;;;;;13.95;12.75;;;;;;;;;;4887043;29;20183;-67
2022/08/17 07:16:18;;;;;;;13.70;12.70;;;;;;;;;;4893564;29;20592;-67
2022/08/17 07:18:44;;;;;;;13.35;12.23;;;;;;;;;;4894916;29;20040;-67
2022/08/17 07:21:20;;;;;;;14.07;12.68;;;;;;;;;;4882994;29;20044;-67
2022/08/17 07:23:48;;;;;;;14.02;12.88;;;;;;;;;;4894348;29;20047;-67
2022/08/17 07:26:14;;;;;;;14.15;12.90;;;;;;;;;;4894149;29;20040;-67
2022/08/17 07:28:42;;;;;;;13.75;12.63;;;;;;;;;;4905208;29;20137;-67
2022/08/17 07:31:08;;;;;;;13.43;12.43;;;;;;;;;;4891068;29;20119;-67
2022/08/17 07:33:35;;;;;;;13.50;12.40;;;;;;;;;;4895085;29;20412;-67
2022/08/17 07:36:01;;;;;;;13.60;12.30;;;;;;;;;;4891497;29;20485;-67
2022/08/17 07:38:30;;;;;;;13.30;12.38;;;;;;;;;;4893341;29;20139;-67
2022/08/17 07:40:56;;;;;;;14.60;13.18;;;;;;;;;;4894396;29;20362;-67
2022/08/17 07:43:30;;;;;;;13.18;11.93;;;;;;;;;;4892378;29;20048;-67
2022/08/17 07:49:03;;;;;;;13.20;11.90;;;;;;;;;;4893345;29;20408;-67
2022/08/17 07:51:43;;;;;;;13.18;12.18;;;;;;;;;;4894604;29;20307;-67
2022/08/17 07:54:14;;;;;;;12.52;11.63;;;;;;;;;;4907144;29;20068;-67
2022/08/17 07:57:21;;;;;;;12.75;11.57;;;;;;;;;;4894233;29;20044;-67
2022/08/17 08:00:15;;;;;;;12.73;11.68;;;;;;;;;;4886665;29;20041;-67
2022/08/17 08:02:44;;;;;;;11.93;10.77;;;;;;;;;;4894085;29;20040;-67
2022/08/17 08:05:11;;;;;;;;;;;;;;;;;;4893776;29;20513;-67
2022/08/17 08:07:49;;;;;;;11.82;11.00;;;;;;;;;;4893269;29;19915;-67
2022/08/17 08:10:27;;;;;;;12.65;11.65;;;;;;;;;;4892059;29;20052;-67
2022/08/17 08:13:09;;;;;;;12.70;11.70;;;;;;;;;;4893712;29;20036;-67
2022/08/17 08:15:42;;;;;;;13.23;12.07;;;;;;;;;;4893064;29;20097;-67
2022/08/17 08:18:36;;;;;;;13.32;12.15;;;;;;;;;;4891600;29;20032;-67
2022/08/17 08:21:38;;;;;;;12.73;11.68;;;;;;;;;;4892753;29;20040;-67
2022/08/17 08:24:03;;;;;;;13.38;12.07;;;;;;;;;;4887882;29;20432;-67
2022/08/17 08:26:47;;;;;;;13.82;12.52;;;;;;;;;;4887454;29;20521;-67
2022/08/17 08:29:29;;;;;;;13.93;12.63;;;;;;;;;;4890962;29;20088;-67
2022/08/17 08:32:19;;;;;;;14.95;12.38;;;;;;;;;;4892836;29;20040;-67
2022/08/17 08:35:25;;;;;;;14.02;12.63;;;;;;;;;;4886969;29;20080;-67
2022/08/17 08:38:06;;;;;;;13.80;12.48;;;;;;;;;;4889927;29;20041;-67
2022/08/17 08:40:50;;;;;;;13.45;12.25;;;;;;;;;;4905456;29;20044;-67
2022/08/17 08:43:55;;;;;;;13.40;12.20;;;;;;;;;;4890805;29;20560;-67
2022/08/17 08:46:41;;;;;;;12.35;11.35;;;;;;;;;;4863317;29;20051;-67
2022/08/17 08:49:33;;;;;;;13.00;11.77;;;;;;;;;;4892737;29;20048;-67
2022/08/17 08:52:02;;;;;;;12.63;11.63;;;;;;;;;;4889885;29;20035;-67
2022/08/17 08:54:34;;;;;;;13.05;11.75;;;;;;;;;;4893126;29;20464;-67
2022/08/17 08:57:20;;;;;;;13.50;12.40;;;;;;;;;;4893160;29;20047;-66
2022/08/17 09:00:05;;;;;;;12.95;11.85;;;;;;;;;;4891158;29;20107;-67
2022/08/17 09:02:58;;;;;;;13.70;12.30;;;;;;;;;;4889970;29;20495;-67
2022/08/17 09:05:47;;;;;;;13.98;12.68;;;;;;;;;;4891184;29;20653;-67
2022/08/17 09:08:51;;;;;;;13.80;12.60;;;;;;;;;;4891308;29;20064;-67
2022/08/17 09:11:37;;;;;;;13.40;12.20;;;;;;;;;;4892123;29;20096;-67
2022/08/17 09:14:18;;;;;;;14.50;13.20;;;;;;;;;;4901542;29;20124;-67
2022/08/17 09:16:50;;;;;;;14.25;12.65;;;;;;;;;;4892683;29;20068;-67
2022/08/17 09:20:24;;;;;;;13.07;11.98;;;;;;;;;;4891279;29;20501;-67
2022/08/17 09:23:01;;;;;;;14.07;12.45;;;;;;;;;;4858605;29;20060;-67
2022/08/17 09:25:31;;;;;;;13.30;12.18;;;;;;;;;;4891672;29;20090;-67
2022/08/17 09:28:05;;;;;;;13.90;12.55;;;;;;;;;;4891408;29;20058;-67
2022/08/17 09:30:42;;;;;;;12.65;11.52;;;;;;;;;;4892730;29;20060;-67
2022/08/17 09:33:10;;;;;;;14.60;11.93;;;;;;;;;;4884664;29;20036;-66
2022/08/17 09:35:45;;;;;;;12.88;11.77;;;;;;;;;;4892282;29;20551;-67
2022/08/17 09:38:25;;;;;;;13.73;11.93;;;;;;;;;;4890011;29;20047;-67
2022/08/17 09:41:15;;;;;;;13.30;12.13;;;;;;;;;;4891890;29;20115;-67
2022/08/17 09:44:05;;;;;;;13.13;11.82;;;;;;;;;;4892026;29;20037;-67
2022/08/17 09:46:37;;;;;;;13.30;12.27;;;;;;;;;;4891511;29;20069;-67
2022/08/17 09:49:08;;;;;;;13.40;12.10;;;;;;;;;;4889443;29;20488;-67
2022/08/17 09:51:42;;;;;;;13.70;12.43;;;;;;;;;;4892007;29;20108;-67
2022/08/17 09:54:26;;;;;;;12.20;11.18;;;;;;;;;;4888913;29;20681;-67
2022/08/17 09:56:52;;;;;;;13.10;11.95;;;;;;;;;;4900084;29;20037;-67
2022/08/17 09:59:49;;;;;;;13.32;12.15;;;;;;;;;;4891148;29;20048;-67
2022/08/17 10:02:53;;;;;;;13.63;12.23;;;;;;;;;;4891709;29;20480;-67
2022/08/17 10:05:42;;;;;;;15.13;11.80;;;;;;;;;;4891170;29;20072;-67
2022/08/17 10:08:21;;;;;;;12.48;11.18;;;;;;;;;;4892029;29;20044;-67
2022/08/17 10:11:04;;;;;;;12.77;11.50;;;;;;;;;;4891101;29;20500;-67
2022/08/17 10:13:52;;;;;;;22.92;12.15;;;;;;;;;;4889210;29;20248;-67
2022/08/17 10:16:37;;;;;;;13.23;11.85;;;;;;;;;;4891417;29;20045;-67
2022/08/17 10:19:20;;;;;;;12.30;11.20;;;;;;;;;;4889008;29;20044;-67
2022/08/17 10:27:41;;;;;;;14.55;12.02;;;;;;;;;;4894087;29;20052;-67
2022/08/17 10:30:09;;;;;;;13.45;11.68;;;;;;;;;;4891912;29;20048;-67
2022/08/17 10:32:44;;;;;;;11.95;11.05;;;;;;;;;;4889672;29;20056;-67
2022/08/17 10:35:30;;;;;;;15.60;11.23;;;;;;;;;;4896366;29;20115;-67
2022/08/17 10:38:01;;;;;;;12.07;11.07;;;;;;;;;;4894430;29;20118;-67
2022/08/17 10:40:33;;;;;;;12.93;11.63;;;;;;;;;;4894212;29;20076;-67
2022/08/17 10:43:17;;;;;;;12.32;11.27;;;;;;;;;;4893167;29;20514;-67
2022/08/17 10:45:48;;;;;;;12.93;11.60;;;;;;;;;;4908815;29;20048;-67
2022/08/17 10:48:35;;;;;;;13.07;11.77;;;;;;;;;;4888570;29;21033;-67
2022/08/17 10:51:08;;;;;;;13.10;12.00;;;;;;;;;;4893288;29;20041;-67
2022/08/17 10:53:33;;;;;;;13.80;11.57;;;;;;;;;;4893133;29;20448;-67
2022/08/17 10:56:11;;;;;;;13.27;11.73;;;;;;;;;;4891409;29;20045;-66
2022/08/17 10:58:45;;;;;;;13.32;12.13;;;;;;;;;;4891389;29;20099;-67
2022/08/17 11:01:11;;;;;;;13.20;11.95;;;;;;;;;;4893731;29;20044;-67
2022/08/17 11:03:53;;;;;;;13.13;11.73;;;;;;;;;;4884715;29;20040;-67
2022/08/17 11:06:37;;;;;;;12.13;11.02;;;;;;;;;;4892871;29;20037;-72
2022/08/17 11:09:41;;;;;;;12.45;11.35;;;;;;;;;;4890778;29;20043;-67
2022/08/17 11:12:11;;;;;;;15.13;12.15;;;;;;;;;;4881399;29;20071;-67
2022/08/17 11:14:56;;;;;;;12.48;11.20;;;;;;;;;;4892785;29;20104;-66
2022/08/17 11:17:44;;;;;;;12.02;10.82;;;;;;;;;;4892777;29;20069;-66
2022/08/17 11:20:27;;;;;;;12.02;11.02;;;;;;;;;;4891189;29;20040;-67
2022/08/17 11:23:25;;;;;;;12.20;11.07;;;;;;;;;;4902245;29;20370;-66
2022/08/17 11:25:57;;;;;;;15.63;11.20;;;;;;;;;;4892576;29;20086;-66
2022/08/17 11:28:34;;;;;;;13.02;11.65;;;;;;;;;;4892864;29;20481;-66
2022/08/17 11:31:39;;;;;;;13.27;11.98;;;;;;;;;;4891393;29;20040;-66
2022/08/17 11:34:25;;;;;;;12.32;11.05;;;;;;;;;;4892573;29;20036;-66
2022/08/17 11:37:00;;;;;;;12.93;11.35;;;;;;;;;;4892854;29;20040;-66
2022/08/17 11:39:35;;;;;;;11.50;10.50;;;;;;;;;;4889520;29;20048;-66
2022/08/17 11:42:26;;;;;;;12.48;11.57;;;;;;;;;;4892102;29;20036;-66
2022/08/17 11:44:58;;;;;;;11.63;10.63;;;;;;;;;;4891538;29;20051;-66
2022/08/17 11:53:37;;;;;;;11.63;10.63;;;;;;;;;;4889609;29;20057;-66
2022/08/17 11:56:08;;;;;;;11.13;10.20;;;;;;;;;;4891850;29;20079;-66
2022/08/17 11:58:39;;;;;;;11.15;10.35;;;;;;;;;;4889935;29;20051;-66
2022/08/17 12:01:31;;;;;;;10.55;9.75;;;;;;;;;;4892635;29;20036;-66
2022/08/17 12:04:26;;;;;;;11.13;10.20;;;;;;;;;;4887317;29;20041;-66
2022/08/17 12:06:59;;;;;;;10.43;9.73;;;;;;;;;;4890722;29;20059;-66
2022/08/17 12:09:33;;;;;;;11.40;10.40;;;;;;;;;;4891086;29;20095;-66
2022/08/17 12:12:11;;;;;;;11.10;10.20;;;;;;;;;;4892414;29;20044;-66
2022/08/17 12:14:39;;;;;;;11.25;10.35;;;;;;;;;;4892084;29;20036;-66
2022/08/17 12:17:08;;;;;;;11.48;10.57;;;;;;;;;;4892655;29;20033;-66
2022/08/17 12:19:36;;;;;;;11.85;10.82;;;;;;;;;;4889790;29;20072;-66
2022/08/17 12:22:24;;;;;;;10.98;10.13;;;;;;;;;;4892154;29;20041;-66
2022/08/17 12:25:03;;;;;;;10.50;9.82;;;;;;;;;;4892258;29;20059;-66
2022/08/17 12:27:32;;;;;;;10.88;9.95;;;;;;;;;;4886217;29;20063;-66
2022/08/17 12:30:01;;;;;;;10.23;9.35;;;;;;;;;;4891484;29;20556;-66
2022/08/17 12:32:32;;;;;;;11.02;10.05;;;;;;;;;;4891441;29;20048;-66
2022/08/17 12:34:59;;;;;;;10.95;10.00;;;;;;;;;;4891505;29;20045;-66
2022/08/17 12:37:30;;;;;;;10.30;9.60;;;;;;;;;;4890159;29;20056;-66
2022/08/17 12:39:58;;;;;;;10.95;10.15;;;;;;;;;;4891822;29;20046;-66
2022/08/17 12:42:36;;;;;;;10.70;10.00;;;;;;;;;;4891451;29;20044;-66
2022/08/17 12:45:07;;;;;;;10.65;9.65;;;;;;;;;;4891520;29;20037;-66
2022/08/17 12:47:36;;;;;;;10.88;10.07;;;;;;;;;;4888288;29;20048;-66
2022/08/17 12:50:07;;;;;;;;;;;;;;;;;;4891519;29;20064;-66
2022/08/17 12:52:37;;;;;;;10.95;10.05;;;;;;;;;;4890967;29;19915;-66
2022/08/17 12:55:21;;;;;;;11.68;10.70;;;;;;;;;;4888516;29;20036;-66
2022/08/17 12:57:58;;;;;;;10.77;9.93;;;;;;;;;;4891170;29;20043;-66
2022/08/17 13:00:36;;;;;;;11.82;10.20;;;;;;;;;;4891247;29;20040;-66
2022/08/17 13:03:12;;;;;;;10.48;9.68;;;;;;;;;;4887663;29;20044;-66
2022/08/17 13:05:40;;;;;;;9.73;9.10;;;;;;;;;;4888039;29;20047;-66
2022/08/17 13:08:14;;;;;;;;;;;;;;;;;;4891673;29;20489;-66
2022/08/17 13:10:42;;;;;;;10.05;9.25;;;;;;;;;;4890707;29;19941;-66
2022/08/17 13:13:23;;;;;;;9.75;9.00;;;;;;;;;;4889674;29;20057;-66
2022/08/17 13:15:58;;;;;;;9.85;9.15;;;;;;;;;;4890711;29;20111;-66
2022/08/17 13:18:39;;;;;;;10.40;9.45;;;;;;;;;;4902557;29;20036;-66
2022/08/17 13:21:15;;;;;;;9.90;9.20;;;;;;;;;;4889378;29;20055;-66
2022/08/17 13:23:42;;;;;;;9.60;8.90;;;;;;;;;;4887458;29;20055;-66
2022/08/17 13:26:14;;;;;;;9.60;8.90;;;;;;;;;;4890178;29;20036;-66
2022/08/17 13:28:48;;;;;;;9.70;9.10;;;;;;;;;;4888490;29;20045;-66
2022/08/17 13:31:31;;;;;;;9.07;8.38;;;;;;;;;;4887368;29;20040;-66
2022/08/17 13:34:19;;;;;;;9.82;9.23;;;;;;;;;;4890611;29;20045;-66
2022/08/17 13:36:46;;;;;;;9.73;9.13;;;;;;;;;;4890665;29;20048;-66
2022/08/17 13:39:17;;;;;;;9.70;9.07;;;;;;;;;;4882188;29;20044;-66
2022/08/17 13:41:44;;;;;;;9.90;9.20;;;;;;;;;;4890044;29;20072;-66
2022/08/17 13:44:37;;;;;;;10.00;9.20;;;;;;;;;;4890021;29;20047;-66
2022/08/17 13:47:11;;;;;;;10.48;9.20;;;;;;;;;;4890178;29;20040;-66
2022/08/17 13:49:37;;;;;;;9.45;8.75;;;;;;;;;;4888827;29;20511;-66
2022/08/17 13:52:02;;;;;;;9.88;9.18;;;;;;;;;;4902267;29;20039;-66
2022/08/17 13:54:36;;;;;;;9.90;9.20;;;;;;;;;;4889157;29;20524;-66
2022/08/17 13:57:11;;;;;;;10.55;9.77;;;;;;;;;;4904880;29;20396;-66
2022/08/17 13:59:45;;;;;;;9.85;9.15;;;;;;;;;;4890232;29;20052;-66
2022/08/17 14:02:16;;;;;;;9.80;9.07;;;;;;;;;;4890000;29;20046;-66
2022/08/17 14:04:44;;;;;;;9.52;8.68;;;;;;;;;;4888352;29;20071;-66
2022/08/17 14:07:12;;;;;;;9.60;8.90;;;;;;;;;;4889776;29;20036;-66
2022/08/17 14:09:48;;;;;;;9.70;8.90;;;;;;;;;;4890463;29;20041;-66
2022/08/17 14:12:18;;;;;;;10.55;9.65;;;;;;;;;;4900754;29;20496;-65
2022/08/17 14:14:44;;;;;;;10.00;9.20;;;;;;;;;;4887663;29;20071;-66
2022/08/17 14:17:10;;;;;;;9.55;8.65;;;;;;;;;;4890382;29;20388;-66
2022/08/17 14:19:36;;;;;;;9.40;8.70;;;;;;;;;;4889595;29;20084;-66
2022/08/17 14:22:05;;;;;;;9.68;8.88;;;;;;;;;;4889483;29;20112;-67
2022/08/17 14:24:38;;;;;;;9.40;8.70;;;;;;;;;;4887990;29;20045;-66
2022/08/17 14:27:05;;;;;;;9.88;9.05;;;;;;;;;;4887837;29;20037;-66
2022/08/17 14:29:33;;;;;;;10.52;9.68;;;;;;;;;;4890751;29;20544;-66
2022/08/17 14:32:05;;;;;;;9.68;8.88;;;;;;;;;;4891884;29;20087;-66
2022/08/17 14:34:31;;;;;;;9.45;8.85;;;;;;;;;;4884175;29;20062;-66
2022/08/17 14:36:56;;;;;;;9.88;9.27;;;;;;;;;;4891654;29;20111;-66
2022/08/17 14:39:22;;;;;;;10.18;9.27;;;;;;;;;;4891697;29;20037;-66
2022/08/17 14:41:48;;;;;;;9.70;8.95;;;;;;;;;;4889303;29;20041;-66
2022/08/17 14:44:14;;;;;;;10.52;9.73;;;;;;;;;;4891204;29;20039;-66
2022/08/17 14:46:42;;;;;;;9.93;9.23;;;;;;;;;;4891825;29;20041;-66
2022/08/17 14:49:09;;;;;;;9.98;9.27;;;;;;;;;;4889556;29;20757;-67
2022/08/17 14:51:35;;;;;;;9.88;9.15;;;;;;;;;;4885629;29;20041;-66
2022/08/17 14:54:01;;;;;;;10.63;9.63;;;;;;;;;;4892095;29;20056;-66
2022/08/17 14:56:28;;;;;;;10.02;9.32;;;;;;;;;;4891832;29;20135;-66
2022/08/17 14:58:53;;;;;;;10.63;9.80;;;;;;;;;;4890398;29;20044;-66
2022/08/17 15:01:20;;;;;;;10.27;9.57;;;;;;;;;;4891682;29;20511;-66
2022/08/17 15:03:47;;;;;;;10.50;9.80;;;;;;;;;;4890904;29;20051;-66
2022/08/17 15:06:13;;;;;;;10.27;9.48;;;;;;;;;;4887737;29;20551;-66
2022/08/17 15:08:39;;;;;;;10.50;9.68;;;;;;;;;;4885289;29;20071;-66
2022/08/17 15:11:06;;;;;;;9.88;9.18;;;;;;;;;;4890618;29;20040;-66
2022/08/17 15:13:31;;;;;;;10.88;9.90;;;;;;;;;;4904393;29;20047;-66
2022/08/17 15:15:58;;;;;;;10.25;9.55;;;;;;;;;;4883243;29;20880;-66
2022/08/17 15:18:25;;;;;;;9.55;8.95;;;;;;;;;;4889186;29;20132;-66
2022/08/17 15:20:51;;;;;;;10.30;9.32;;;;;;;;;;4892291;29;20040;-64
2022/08/17 15:23:25;;;;;;;10.43;9.43;;;;;;;;;;4889713;29;20052;-65
2022/08/17 15:25:53;;;;;;;10.10;9.30;;;;;;;;;;4889480;29;20057;-65